Time;durP1;ratioP1;P1;durP2;ratioP2;P2;SDS_P1;SDS_P2;PMS_P1;PMS_P2;Temp;Humidity;BMP_temperature;BMP_pressure;BME280_temperature;BME280_humidity;BME280_pressure;Samples;Min_cycle;Max_cycle;Signal;HPM_P1;HPM_P2
2022/04/04 00:00:00;;;;;;;;;;;;;;;;;;5094533;28;19916;-70
2022/04/04 00:02:26;;;;;;;;;;;;;;;;;;5094540;28;19973;-69
2022/04/04 00:04:52;;;;;;;;;;;;;;;;;;5094802;28;19984;-70
2022/04/04 00:07:18;;;;;;;;;;;;;;;;;;5094756;28;19974;-69
2022/04/04 00:09:45;;;;;;;;;;;;;;;;;;5094682;28;20283;-70
2022/04/04 00:12:11;;;;;;;;;;;;;;;;;;5094289;28;19912;-69
2022/04/04 00:14:37;;;;;;;;;;;;;;;;;;5094374;28;20347;-70
2022/04/04 00:17:03;;;;;;;;;;;;;;;;;;5093309;28;19907;-70
2022/04/04 00:19:29;;;;;;;;;;;;;;;;;;5094703;28;20004;-69
2022/04/04 00:21:56;;;;;;;;;;;;;;;;;;5094069;28;20425;-69
2022/04/04 00:24:22;;;;;;;;;;;;;;;;;;5094956;28;20352;-69
2022/04/04 00:26:48;;;;;;;;;;;;;;;;;;5094371;28;19915;-69
2022/04/04 00:29:15;;;;;;;;;;;;;;;;;;5094026;28;19908;-70
2022/04/04 00:31:41;;;;;;;;;;;;;;;;;;5093713;28;20288;-70
2022/04/04 00:34:07;;;;;;;;;;;;;;;;;;5094660;28;19918;-69
2022/04/04 00:36:33;;;;;;;;;;;;;;;;;;5092797;28;19915;-69
2022/04/04 00:38:59;;;;;;;;;;;;;;;;;;5092997;28;19908;-69
2022/04/04 00:41:25;;;;;;;;;;;;;;;;;;5094313;28;19912;-69
2022/04/04 00:43:51;;;;;;;;;;;;;;;;;;5092538;28;19922;-70
2022/04/04 00:46:17;;;;;;;;;;;;;;;;;;5092896;28;19908;-69
2022/04/04 00:48:43;;;;;;;;;;;;;;;;;;5094143;28;20281;-70
2022/04/04 00:51:09;;;;;;;;;;;;;;;;;;5093684;28;19950;-70
2022/04/04 00:53:35;;;;;;;;;;;;;;;;;;5094113;28;19912;-69
2022/04/04 00:56:01;;;;;;;;;;;;;;;;;;5094329;28;19908;-70
2022/04/04 00:58:27;;;;;;;;;;;;;;;;;;5092484;28;19908;-70
2022/04/04 01:00:53;;;;;;;;;;;;;;;;;;5092632;28;20007;-70
2022/04/04 01:03:19;;;;;;;;;;;;;;;;;;5093957;28;20073;-70
2022/04/04 01:05:45;;;;;;;;;;;;;;;;;;5094140;28;20375;-70
2022/04/04 01:08:12;;;;;;;;;;;;;;;;;;5092880;28;20275;-70
2022/04/04 01:10:38;;;;;;;;;;;;;;;;;;5092467;28;19908;-70
2022/04/04 01:13:04;;;;;;;;;;;;;;;;;;5093983;28;19909;-70
2022/04/04 01:15:32;;;;;;;;;;;;;;;;;;5093928;28;20371;-71
2022/04/04 01:17:58;;;;;;;;;;;;;;;;;;5092146;28;19958;-70
2022/04/04 01:20:24;;;;;;;;;;;;;;;;;;5094031;28;19909;-70
2022/04/04 01:22:50;;;;;;;;;;;;;;;;;;5094465;28;19926;-70
2022/04/04 01:25:17;;;;;;;;;;;;;;;;;;5097532;28;19908;-70
2022/04/04 01:27:42;;;;;;;;;;;;;;;;;;5098036;28;19908;-70
2022/04/04 01:30:08;;;;;;;;;;;;;;;;;;5097868;28;19996;-70
2022/04/04 01:32:34;;;;;;;;;;;;;;;;;;5096067;28;19908;-71
2022/04/04 01:35:00;;;;;;;;;;;;;;;;;;5096453;28;20314;-70
2022/04/04 01:37:26;;;;;;;;;;;;;;;;;;5098151;28;19912;-71
2022/04/04 01:39:52;;;;;;;;;;;;;;;;;;5097295;28;19908;-70
2022/04/04 01:42:19;;;;;;;;;;;;;;;;;;5097508;28;20364;-71
2022/04/04 01:44:45;;;;;;;;;;;;;;;;;;5097599;28;19931;-71
2022/04/04 01:47:11;;;;;;;;;;;;;;;;;;5097186;28;20387;-71
2022/04/04 01:49:36;;;;;;;;;;;;;;;;;;5097510;28;19908;-70
2022/04/04 01:52:02;;;;;;;;;;;;;;;;;;5097443;28;20356;-71
2022/04/04 01:54:28;;;;;;;;;;;;;;;;;;5095692;28;19915;-71
2022/04/04 01:56:54;;;;;;;;;;;;;;;;;;5097466;28;19961;-70
2022/04/04 01:59:20;;;;;;;;;;;;;;;;;;5097380;28;20328;-71
2022/04/04 02:01:46;;;;;;;;;;;;;;;;;;5096659;28;19942;-71
2022/04/04 02:04:13;;;;;;;;;;;;;;;;;;5097175;28;19908;-71
2022/04/04 02:06:39;;;;;;;;;;;;;;;;;;5096750;28;19915;-71
2022/04/04 02:09:05;;;;;;;;;;;;;;;;;;5097057;28;19912;-70
2022/04/04 02:11:31;;;;;;;;;;;;;;;;;;5097033;28;20003;-70
2022/04/04 02:13:58;;;;;;;;;;;;;;;;;;5096552;28;20049;-70
2022/04/04 02:16:24;;;;;;;;;;;;;;;;;;5095701;28;20272;-70
2022/04/04 02:18:51;;;;;;;;;;;;;;;;;;5095593;28;19912;-71
2022/04/04 02:21:17;;;;;;;;;;;;;;;;;;5095145;28;19908;-71
2022/04/04 02:23:43;;;;;;;;;;;;;;;;;;5096997;28;19915;-70
2022/04/04 02:26:09;;;;;;;;;;;;;;;;;;5097153;28;19908;-70
2022/04/04 02:28:35;;;;;;;;;;;;;;;;;;5096272;28;19908;-71
2022/04/04 02:31:01;;;;;;;;;;;;;;;;;;5096987;28;20276;-71
2022/04/04 02:33:27;;;;;;;;;;;;;;;;;;5095065;28;19908;-70
2022/04/04 02:35:53;;;;;;;;;;;;;;;;;;5095962;28;19908;-71
2022/04/04 02:38:19;;;;;;;;;;;;;;;;;;5096805;28;19908;-71
2022/04/04 02:40:45;;;;;;;;;;;;;;;;;;5096738;28;19914;-70
2022/04/04 02:43:11;;;;;;;;;;;;;;;;;;5094665;28;19916;-70
2022/04/04 02:45:37;;;;;;;;;;;;;;;;;;5095240;28;19908;-70
2022/04/04 02:48:03;;;;;;;;;;;;;;;;;;5096330;28;19908;-71
2022/04/04 02:50:29;;;;;;;;;;;;;;;;;;5094565;28;20360;-71
2022/04/04 02:52:55;;;;;;;;;;;;;;;;;;5095237;28;20279;-70
2022/04/04 02:58:06;;;;;;;;;;;;;;;;;;5095889;28;19931;-70
2022/04/04 03:00:32;;;;;;;;;;;;;;;;;;5096066;28;20351;-70
2022/04/04 03:02:58;;;;;;;;;;;;;;;;;;5094130;28;19920;-71
2022/04/04 03:05:24;;;;;;;;;;;;;;;;;;5096259;28;19908;-70
2022/04/04 03:07:50;;;;;;;;;;;;;;;;;;5096066;28;19908;-70
2022/04/04 03:10:16;;;;;;;;;;;;;;;;;;5095768;28;19990;-69
2022/04/04 03:12:42;;;;;;;;;;;;;;;;;;5096202;28;19943;-69
2022/04/04 03:15:08;;;;;;;;;;;;;;;;;;5094531;28;19930;-69
2022/04/04 03:17:34;;;;;;;;;;;;;;;;;;5094037;28;20423;-70
2022/04/04 03:20:00;;;;;;;;;;;;;;;;;;5094419;28;19912;-70
2022/04/04 03:22:26;;;;;;;;;;;;;;;;;;5094290;28;19923;-70
2022/04/04 03:24:52;;;;;;;;;;;;;;;;;;5095267;28;20324;-70
2022/04/04 03:27:18;;;;;;;;;;;;;;;;;;5095716;28;19908;-70
2022/04/04 03:29:44;;;;;;;;;;;;;;;;;;5094221;28;20433;-70
2022/04/04 03:32:10;;;;;;;;;;;;;;;;;;5095214;28;19912;-70
2022/04/04 03:34:36;;;;;;;;;;;;;;;;;;5094139;28;19950;-70
2022/04/04 03:37:02;;;;;;;;;;;;;;;;;;5094145;28;20280;-70
2022/04/04 03:39:28;;;;;;;;;;;;;;;;;;5095028;28;19908;-70
2022/04/04 03:41:54;;;;;;;;;;;;;;;;;;5095280;28;19961;-70
2022/04/04 03:44:20;;;;;;;;;;;;;;;;;;5095278;28;19915;-70
2022/04/04 03:46:46;;;;;;;;;;;;;;;;;;5092755;28;19916;-70
2022/04/04 03:49:12;;;;;;;;;;;;;;;;;;5095492;28;19909;-69
2022/04/04 03:51:38;;;;;;;;;;;;;;;;;;5093946;28;19951;-70
2022/04/04 03:54:07;;;;;;;;;;;;;;;;;;5094957;28;19940;-70
2022/04/04 03:56:33;;;;;;;;;;;;;;;;;;5094990;28;19954;-70
2022/04/04 03:58:59;;;;;;;;;;;;;;;;;;5095141;28;19908;-70
2022/04/04 04:01:27;;;;;;;;;;;;;;;;;;5094202;28;19927;-70
2022/04/04 04:03:53;;;;;;;;;;;;;;;;;;5094969;28;20283;-70
2022/04/04 04:06:19;;;;;;;;;;;;;;;;;;5094523;28;19915;-71
2022/04/04 04:08:45;;;;;;;;;;;;;;;;;;5093538;28;19947;-70
2022/04/04 04:11:13;;;;;;;;;;;;;;;;;;5094294;28;20395;-71
2022/04/04 04:13:40;;;;;;;;;;;;;;;;;;5093044;28;20253;-71
2022/04/04 04:16:09;;;;;;;;;;;;;;;;;;5094678;28;19938;-70
2022/04/04 04:18:36;;;;;;;;;;;;;;;;;;5094658;28;20341;-71
2022/04/04 04:21:02;;;;;;;;;;;;;;;;;;5092816;28;19914;-73
2022/04/04 04:23:28;;;;;;;;;;;;;;;;;;5094390;28;20314;-73
2022/04/04 04:25:54;;;;;;;;;;;;;;;;;;5094492;28;19927;-70
2022/04/04 04:28:20;;;;;;;;;;;;;;;;;;5092724;28;19916;-70
2022/04/04 04:30:46;;;;;;;;;;;;;;;;;;5094453;28;19908;-70
2022/04/04 04:33:12;;;;;;;;;;;;;;;;;;5094505;28;19912;-70
2022/04/04 04:35:38;;;;;;;;;;;;;;;;;;5094110;28;19908;-70
2022/04/04 04:38:04;;;;;;;;;;;;;;;;;;5093218;28;20305;-70
2022/04/04 04:40:30;;;;;;;;;;;;;;;;;;5093032;28;19912;-71
2022/04/04 04:42:56;;;;;;;;;;;;;;;;;;5092456;28;19919;-71
2022/04/04 04:45:22;;;;;;;;;;;;;;;;;;5094132;28;19961;-71
2022/04/04 04:47:48;;;;;;;;;;;;;;;;;;5094144;28;19908;-71
2022/04/04 04:50:14;;;;;;;;;;;;;;;;;;5093570;28;19908;-70
2022/04/04 04:52:40;;;;;;;;;;;;;;;;;;5092757;28;20294;-70
2022/04/04 04:55:06;;;;;;;;;;;;;;;;;;5093960;28;19908;-70
2022/04/04 04:57:32;;;;;;;;;;;;;;;;;;5093501;28;19909;-71
2022/04/04 04:59:58;;;;;;;;;;;;;;;;;;5092729;28;19915;-71
2022/04/04 05:02:24;;;;;;;;;;;;;;;;;;5093156;28;19931;-71
2022/04/04 05:04:50;;;;;;;;;;;;;;;;;;5092482;28;19919;-71
2022/04/04 05:07:16;;;;;;;;;;;;;;;;;;5093459;28;20383;-70
2022/04/04 05:09:42;;;;;;;;;;;;;;;;;;5091772;28;19916;-71
2022/04/04 05:12:08;;;;;;;;;;;;;;;;;;5105646;28;19908;-70
2022/04/04 05:14:36;;;;;;;;;;;;;;;;;;5088354;28;20415;-70
2022/04/04 05:17:02;;;;;;;;;;;;;;;;;;5099893;28;19912;-70
2022/04/04 05:19:28;;;;;;;;;;;;;;;;;;5094311;28;19915;-72
2022/04/04 05:21:54;;;;;;;;;;;;;;;;;;5108580;28;19919;-69
2022/04/04 05:24:20;;;;;;;;;;;;;;;;;;5079226;28;19917;-70
2022/04/04 05:26:46;;;;;;;;;;;;;;;;;;5095677;28;19911;-68
2022/04/04 05:29:12;;;;;;;;;;;;;;;;;;5104672;28;20339;-69
2022/04/04 05:31:38;;;;;;;;;;;;;;;;;;5097881;28;19908;-69
2022/04/04 05:34:04;;;;;;;;;;;;;;;;;;5105984;28;19915;-69
2022/04/04 05:36:30;;;;;;;;;;;;;;;;;;5106463;28;19954;-71
2022/04/04 05:38:57;;;;;;;;;;;;;;;;;;5091666;28;20127;-70
2022/04/04 05:41:23;;;;;;;;;;;;;;;;;;5106960;28;19916;-70
2022/04/04 05:43:49;;;;;;;;;;;;;;;;;;5090754;28;20003;-70
2022/04/04 05:46:16;;;;;;;;;;;;;;;;;;5099816;28;19908;-70
2022/04/04 05:48:42;;;;;;;;;;;;;;;;;;5108758;28;19961;-70
2022/04/04 05:51:08;;;;;;;;;;;;;;;;;;5109731;28;20468;-70
2022/04/04 05:53:34;;;;;;;;;;;;;;;;;;5107760;28;20363;-70
2022/04/04 05:56:00;;;;;;;;;;;;;;;;;;5109245;28;19923;-69
2022/04/04 05:58:26;;;;;;;;;;;;;;;;;;5109340;28;20389;-71
2022/04/04 06:00:53;;;;;;;;;;;;;;;;;;5108505;28;19968;-70
2022/04/04 06:03:19;;;;;;;;;;;;;;;;;;5097799;28;20034;-74
2022/04/04 06:05:48;;;;;;;;;;;;;;;;;;5100679;28;20419;-74
2022/04/04 06:08:14;;;;;;;;;;;;;;;;;;5098233;28;20383;-73
2022/04/04 06:10:40;;;;;;;;;;;;;;;;;;5113053;28;20008;-73
2022/04/04 06:13:06;;;;;;;;;;;;;;;;;;5106409;28;20002;-72
2022/04/04 06:15:32;;;;;;;;;;;;;;;;;;5112313;28;20015;-74
2022/04/04 06:17:59;;;;;;;;;;;;;;;;;;5099572;28;19923;-73
2022/04/04 06:20:25;;;;;;;;;;;;;;;;;;5106227;28;19912;-74
2022/04/04 06:22:52;;;;;;;;;;;;;;;;;;5111553;28;20245;-71
2022/04/04 06:25:21;;;;;;;;;;;;;;;;;;5104821;27;19909;-70
2022/04/04 06:27:47;;;;;;;;;;;;;;;;;;5103913;28;19955;-70
2022/04/04 06:30:13;;;;;;;;;;;;;;;;;;5103214;28;19935;-70
2022/04/04 06:32:39;;;;;;;;;;;;;;;;;;5111612;28;19918;-69
2022/04/04 06:35:05;;;;;;;;;;;;;;;;;;5111363;28;19957;-70
2022/04/04 06:37:31;;;;;;;;;;;;;;;;;;5106024;28;19960;-70
2022/04/04 06:39:57;;;;;;;;;;;;;;;;;;5114495;28;19919;-70
2022/04/04 06:42:23;;;;;;;;;;;;;;;;;;5113380;28;20458;-68
2022/04/04 06:44:50;;;;;;;;;;;;;;;;;;5112936;28;19915;-70
2022/04/04 06:47:16;;;;;;;;;;;;;;;;;;5105610;28;19961;-69
2022/04/04 06:49:42;;;;;;;;;;;;;;;;;;5112361;28;19915;-68
2022/04/04 06:52:08;;;;;;;;;;;;;;;;;;5101042;28;20359;-69
2022/04/04 06:54:34;;;;;;;;;;;;;;;;;;5096661;28;19998;-69
2022/04/04 06:57:00;;;;;;;;;;;;;;;;;;5098249;28;20332;-68
2022/04/04 06:59:27;;;;;;;;;;;;;;;;;;5111591;28;20390;-70
2022/04/04 07:01:53;;;;;;;;;;;;;;;;;;5113514;28;19919;-69
2022/04/04 07:04:19;;;;;;;;;;;;;;;;;;5113070;28;19908;-70
2022/04/04 07:06:46;;;;;;;;;;;;;;;;;;5108639;28;20324;-68
2022/04/04 07:09:12;;;;;;;;;;;;;;;;;;5112205;28;19918;-69
2022/04/04 07:11:38;;;;;;;;;;;;;;;;;;5110426;28;19908;-69
2022/04/04 07:14:06;;;;;;;;;;;;;;;;;;5088285;28;19968;-69
2022/04/04 07:16:33;;;;;;;;;;;;;;;;;;5105599;28;19920;-69
2022/04/04 07:18:59;;;;;;;;;;;;;;;;;;5106922;28;19919;-70
2022/04/04 07:21:25;;;;;;;;;;;;;;;;;;5111188;28;19912;-72
2022/04/04 07:23:51;;;;;;;;;;;;;;;;;;5099795;28;19912;-71
2022/04/04 07:26:19;;;;;;;;;;;;;;;;;;5103709;28;19912;-72
2022/04/04 07:28:46;;;;;;;;;;;;;;;;;;5111058;28;20302;-69
2022/04/04 07:31:12;;;;;;;;;;;;;;;;;;5103904;28;20287;-70
2022/04/04 07:33:38;;;;;;;;;;;;;;;;;;5098192;28;19912;-69
2022/04/04 07:36:04;;;;;;;;;;;;;;;;;;5090488;28;19911;-71
2022/04/04 07:38:30;;;;;;;;;;;;;;;;;;5105016;28;19938;-69
2022/04/04 07:40:56;;;;;;;;;;;;;;;;;;5107555;28;19918;-69
2022/04/04 07:43:22;;;;;;;;;;;;;;;;;;5099579;28;19920;-69
2022/04/04 07:45:48;;;;;;;;;;;;;;;;;;5100404;28;19947;-69
2022/04/04 07:48:15;;;;;;;;;;;;;;;;;;5110256;28;19961;-68
2022/04/04 07:50:43;;;;;;;;;;;;;;;;;;5088073;28;20048;-70
2022/04/04 07:53:09;;;;;;;;;;;;;;;;;;5083263;28;19977;-69
2022/04/04 07:55:36;;;;;;;;;;;;;;;;;;5085171;28;19944;-69
2022/04/04 07:58:02;;;;;;;;;;;;;;;;;;5105999;28;19931;-68
2022/04/04 08:00:28;;;;;;;;;;;;;;;;;;5105426;28;20021;-69
2022/04/04 08:02:54;;;;;;;;;;;;;;;;;;5100927;28;19964;-69
2022/04/04 08:05:21;;;;;;;;;;;;;;;;;;5109356;28;19934;-70
2022/04/04 08:07:48;;;;;;;;;;;;;;;;;;5112810;28;19930;-69
2022/04/04 08:10:14;;;;;;;;;;;;;;;;;;5110500;28;20413;-68
2022/04/04 08:12:40;;;;;;;;;;;;;;;;;;5112220;28;19916;-70
2022/04/04 08:15:06;;;;;;;;;;;;;;;;;;5112010;28;19964;-69
2022/04/04 08:17:32;;;;;;;;;;;;;;;;;;5111983;28;20426;-70
2022/04/04 08:19:58;;;;;;;;;;;;;;;;;;5111877;28;20385;-69
2022/04/04 08:22:24;;;;;;;;;;;;;;;;;;5104830;28;20026;-69
2022/04/04 08:24:50;;;;;;;;;;;;;;;;;;5097909;28;19938;-69
2022/04/04 08:27:16;;;;;;;;;;;;;;;;;;5090754;28;19916;-69
2022/04/04 08:29:42;;;;;;;;;;;;;;;;;;5100956;28;19912;-68
2022/04/04 08:32:08;;;;;;;;;;;;;;;;;;5090818;28;19919;-69
2022/04/04 08:34:34;;;;;;;;;;;;;;;;;;5090949;28;19916;-68
2022/04/04 08:37:00;;;;;;;;;;;;;;;;;;5084384;28;19961;-74
2022/04/04 08:39:26;;;;;;;;;;;;;;;;;;5091423;28;19955;-74
2022/04/04 08:41:52;;;;;;;;;;;;;;;;;;5110934;28;19911;-69
2022/04/04 08:44:18;;;;;;;;;;;;;;;;;;5108650;28;19908;-68
2022/04/04 08:46:44;;;;;;;;;;;;;;;;;;5104159;28;20366;-69
2022/04/04 08:49:10;;;;;;;;;;;;;;;;;;5109218;28;19918;-69
2022/04/04 08:54:10;;;;;;;;;;;;;;;;;;5087784;27;19917;-69
2022/04/04 08:57:30;;;;;;;;;;;;;;;;;;5103816;27;19918;-70
2022/04/04 08:59:56;;;;;;;;;;;;;;;;;;5099246;28;19958;-69
2022/04/04 09:04:07;;;;;;;;;;;;;;;;;;5085277;27;20287;-70
2022/04/04 09:12:51;;;;;;;;;;;;;;;;;;5124562;27;19912;-68
2022/04/04 09:15:17;;;;;;;;;;;;;;;;;;5124411;27;19915;-69
2022/04/04 09:25:42;;;;;;;;;;;;;;;;;;5136760;27;20383;-69
2022/04/04 09:28:31;;;;;;;;;;;;;;;;;;5084313;28;19942;-70
2022/04/04 09:30:57;;;;;;;;;;;;;;;;;;5086708;28;19916;-69
2022/04/04 09:33:23;;;;;;;;;;;;;;;;;;5087936;28;19915;-69
2022/04/04 09:35:49;;;;;;;;;;;;;;;;;;5089049;28;19909;-70
2022/04/04 09:38:16;;;;;;;;;;;;;;;;;;5087613;28;20388;-70
2022/04/04 09:40:42;;;;;;;;;;;;;;;;;;5088316;28;20261;-70
2022/04/04 09:43:08;;;;;;;;;;;;;;;;;;5087853;28;19930;-70
2022/04/04 09:45:34;;;;;;;;;;;;;;;;;;5088204;28;19917;-70
2022/04/04 09:50:32;;;;;;;;;;;;;;;;;;5088583;27;20372;-72
2022/04/04 09:52:58;;;;;;;;;;;;;;;;;;5088626;28;19962;-69
2022/04/04 09:59:55;;;;;;;;;;;;;;;;;;5088116;27;19923;-71
2022/04/04 10:05:28;;;;;;;;;;;;;;;;;;5067902;28;19929;-69
2022/04/04 10:08:51;;;;;;;;;;;;;;;;;;5088923;28;19916;-71
2022/04/04 10:17:53;;;;;;;;;;;;;;;;;;5086408;28;19922;-72
2022/04/04 10:20:19;;;;;;;;;;;;;;;;;;5080843;28;19913;-70
2022/04/04 10:23:27;;;;;;;;;;;;;;;;;;5087837;28;19921;-73
2022/04/04 10:28:05;;;;;;;;;;;;;;;;;;5087587;27;20282;-71
2022/04/04 10:30:32;;;;;;;;;;;;;;;;;;5087697;28;20320;-72
2022/04/04 10:32:58;;;;;;;;;;;;;;;;;;5085928;28;19958;-71
2022/04/04 10:35:24;;;;;;;;;;;;;;;;;;5083170;28;20588;-71
2022/04/04 10:37:50;;;;;;;;;;;;;;;;;;5083647;28;20416;-71
2022/04/04 10:41:32;;;;;;;;;;;;;;;;;;5118687;27;19912;-71
2022/04/04 10:44:42;;;;;;;;;;;;;;;;;;5085825;27;19920;-68
2022/04/04 10:47:08;;;;;;;;;;;;;;;;;;5086640;28;19916;-71
2022/04/04 10:52:54;;;;;;;;;;;;;;;;;;5124526;27;19916;-71
2022/04/04 10:55:20;;;;;;;;;;;;;;;;;;5124501;27;19918;-70
2022/04/04 10:57:47;;;;;;;;;;;;;;;;;;5128876;27;19994;-69
2022/04/04 11:00:13;;;;;;;;;;;;;;;;;;5125324;27;19957;-70
2022/04/04 11:07:37;;;;;;;;;;;;;;;;;;5113651;27;20268;-70
2022/04/04 11:09:26;;;;;;;;;;;;;;;;;;5128652;27;19920;-70
2022/04/04 11:11:54;;;;;;;;;;;;;;;;;;5130068;27;19956;-70
2022/04/04 11:14:20;;;;;;;;;;;;;;;;;;5120511;27;19912;-68
2022/04/04 11:17:08;;;;;;;;;;;;;;;;;;5087608;27;19923;-69
2022/04/04 11:19:34;;;;;;;;;;;;;;;;;;5085698;28;19919;-71
2022/04/04 11:22:00;;;;;;;;;;;;;;;;;;5086972;28;19912;-69
2022/04/04 11:24:26;;;;;;;;;;;;;;;;;;5085507;28;19909;-70
2022/04/04 11:26:52;;;;;;;;;;;;;;;;;;5086681;28;20257;-71
2022/04/04 11:29:22;;;;;;;;;;;;;;;;;;5087830;28;20002;-72
2022/04/04 11:33:40;;;;;;;;;;;;;;;;;;5109274;27;19920;-72
2022/04/04 11:36:06;;;;;;;;;;;;;;;;;;5119633;28;19912;-73
2022/04/04 11:40:18;;;;;;;;;;;;;;;;;;5130097;27;20006;-69
2022/04/04 11:42:44;;;;;;;;;;;;;;;;;;5110219;28;19919;-68
2022/04/04 11:46:22;;;;;;;;;;;;;;;;;;5088559;28;19923;-72
2022/04/04 11:50:13;;;;;;;;;;;;;;;;;;5087826;27;19920;-72
2022/04/04 11:54:20;;;;;;;;;;;;;;;;;;5081773;28;19927;-69
2022/04/04 11:56:47;;;;;;;;;;;;;;;;;;5087847;28;20298;-71
2022/04/04 11:59:13;;;;;;;;;;;;;;;;;;5088060;28;19920;-70
2022/04/04 12:03:29;;;;;;;;;;;;;;;;;;5080372;28;19916;-71
2022/04/04 12:07:35;;;;;;;;;;;;;;;;;;5158448;27;19915;-70
2022/04/04 12:10:01;;;;;;;;;;;;;;;;;;5141993;27;19922;-70
2022/04/04 12:12:28;;;;;;;;;;;;;;;;;;5145822;27;19918;-70
2022/04/04 12:17:13;;;;;;;;;;;;;;;;;;5058201;28;19917;-70
2022/04/04 12:19:39;;;;;;;;;;;;;;;;;;5061097;28;19917;-72
2022/04/04 12:27:13;;;;;;;;;;;;;;;;;;5089826;27;19913;-67
2022/04/04 12:30:38;;;;;;;;;;;;;;;;;;5091318;27;19916;-66
2022/04/04 12:33:04;;;;;;;;;;;;;;;;;;5090955;28;19935;-67
2022/04/04 12:35:30;;;;;;;;;;;;;;;;;;5091182;28;19908;-67
2022/04/04 12:40:40;;;;;;;;;;;;;;;;;;5090998;27;19916;-69
2022/04/04 12:46:11;;;;;;;;;;;;;;;;;;5088939;27;19916;-68
2022/04/04 12:51:40;;;;;;;;;;;;;;;;;;5090338;27;19920;-69
2022/04/04 12:56:26;;;;;;;;;;;;;;;;;;5090838;27;19912;-69
2022/04/04 12:58:52;;;;;;;;;;;;;;;;;;5086968;28;19912;-68
2022/04/04 13:03:42;;;;;;;;;;;;;;;;;;5089433;27;20303;-70
2022/04/04 13:06:08;;;;;;;;;;;;;;;;;;5089617;28;19912;-67
2022/04/04 13:09:37;;;;;;;;;;;;;;;;;;5089496;27;20303;-68
2022/04/04 13:12:03;;;;;;;;;;;;;;;;;;5089889;28;19948;-69
2022/04/04 13:15:57;;;;;;;;;;;;;;;;;;5090350;27;19916;-68
2022/04/04 13:18:23;;;;;;;;;;;;;;;;;;5091188;28;19916;-68
2022/04/04 13:22:07;;;;;;;;;;;;;;;;;;5091009;27;19917;-69
2022/04/04 13:29:01;;;;;;;;;;;;;;;;;;5090902;27;19913;-70
2022/04/04 13:34:27;;;;;;;;;;;;;;;;;;5111833;27;19912;-69
2022/04/04 13:40:47;;;;;;;;;;;;;;;;;;5091407;27;19916;-68
2022/04/04 13:45:52;;;;;;;;;;;;;;;;;;5091777;27;19923;-67
2022/04/04 13:48:18;;;;;;;;;;;;;;;;;;5091418;28;19995;-68
2022/04/04 13:52:06;;;;;;;;;;;;;;;;;;5090935;27;19916;-70
2022/04/04 13:56:32;;;;;;;;;;;;;;;;;;5092099;27;19916;-70
2022/04/04 13:58:58;;;;;;;;;;;;;;;;;;5090907;28;19944;-68
2022/04/04 14:01:24;;;;;;;;;;;;;;;;;;5089932;28;19908;-68
2022/04/04 14:03:51;;;;;;;;;;;;;;;;;;5090926;28;19940;-68
2022/04/04 14:06:47;;;;;;;;;;;;;;;;;;5091858;28;19923;-69
2022/04/04 14:10:08;;;;;;;;;;;;;;;;;;5091698;27;19918;-68
2022/04/04 14:14:02;;;;;;;;;;;;;;;;;;5091488;27;19916;-68
2022/04/04 14:17:11;;;;;;;;;;;;;;;;;;5091287;27;19913;-67
2022/04/04 14:19:37;;;;;;;;;;;;;;;;;;5089632;28;19916;-68
2022/04/04 14:22:03;;;;;;;;;;;;;;;;;;5091357;28;19954;-69
2022/04/04 14:24:29;;;;;;;;;;;;;;;;;;5091210;28;19908;-68
2022/04/04 14:28:36;;;;;;;;;;;;;;;;;;5091503;27;20398;-68
2022/04/04 14:31:03;;;;;;;;;;;;;;;;;;5091357;28;20434;-68
2022/04/04 14:33:29;;;;;;;;;;;;;;;;;;5091089;28;20286;-68
2022/04/04 14:35:55;;;;;;;;;;;;;;;;;;5091265;28;19909;-68
2022/04/04 14:39:39;;;;;;;;;;;;;;;;;;5091155;27;19938;-70
2022/04/04 14:42:05;;;;;;;;;;;;;;;;;;5091323;28;19913;-69
2022/04/04 14:45:08;;;;;;;;;;;;;;;;;;5153284;27;20010;-68
2022/04/04 14:47:34;;;;;;;;;;;;;;;;;;5152485;27;20014;-69
2022/04/04 14:50:00;;;;;;;;;;;;;;;;;;5152861;27;20369;-69
2022/04/04 14:52:25;;;;;;;;;;;;;;;;;;5152975;27;19911;-69
2022/04/04 14:54:51;;;;;;;;;;;;;;;;;;5133765;27;20002;-69
2022/04/04 14:57:18;;;;;;;;;;;;;;;;;;5153234;27;19912;-69
2022/04/04 14:59:44;;;;;;;;;;;;;;;;;;5134156;27;19908;-69
2022/04/04 15:02:10;;;;;;;;;;;;;;;;;;5133730;27;19914;-69
2022/04/04 15:04:36;;;;;;;;;;;;;;;;;;5133902;27;19919;-69
2022/04/04 15:07:02;;;;;;;;;;;;;;;;;;5152922;27;19951;-69
2022/04/04 15:09:28;;;;;;;;;;;;;;;;;;5152062;27;19998;-69
2022/04/04 15:11:54;;;;;;;;;;;;;;;;;;5152441;27;19914;-69
2022/04/04 15:14:20;;;;;;;;;;;;;;;;;;5151937;27;19911;-69
2022/04/04 15:16:46;;;;;;;;;;;;;;;;;;5152355;27;19911;-69
2022/04/04 15:19:12;;;;;;;;;;;;;;;;;;5152401;27;19929;-69
2022/04/04 15:21:38;;;;;;;;;;;;;;;;;;5152279;27;19908;-69
2022/04/04 15:24:04;;;;;;;;;;;;;;;;;;5152053;27;19922;-69
2022/04/04 15:26:32;;;;;;;;;;;;;;;;;;5133471;27;19994;-69
2022/04/04 15:28:58;;;;;;;;;;;;;;;;;;5132835;27;19914;-69
2022/04/04 15:31:24;;;;;;;;;;;;;;;;;;5152168;27;19907;-69
2022/04/04 15:33:50;;;;;;;;;;;;;;;;;;5151854;27;19907;-69
2022/04/04 15:36:16;;;;;;;;;;;;;;;;;;5151983;27;20260;-70
2022/04/04 15:38:42;;;;;;;;;;;;;;;;;;5152194;27;19932;-69
2022/04/04 15:41:08;;;;;;;;;;;;;;;;;;5151780;27;19907;-69
2022/04/04 15:43:34;;;;;;;;;;;;;;;;;;5136878;27;19920;-69
2022/04/04 15:46:00;;;;;;;;;;;;;;;;;;5151811;27;19908;-69
2022/04/04 15:48:28;;;;;;;;;;;;;;;;;;5151555;27;19908;-69
2022/04/04 15:50:54;;;;;;;;;;;;;;;;;;5151091;27;19911;-69
2022/04/04 15:53:20;;;;;;;;;;;;;;;;;;5151660;27;20431;-69
2022/04/04 15:55:46;;;;;;;;;;;;;;;;;;5141508;27;19942;-69
2022/04/04 15:58:13;;;;;;;;;;;;;;;;;;5137222;27;19907;-70
2022/04/04 16:00:42;;;;;;;;;;;;;;;;;;5137551;27;20331;-69
2022/04/04 16:03:08;;;;;;;;;;;;;;;;;;5137915;27;20316;-70
2022/04/04 16:05:34;;;;;;;;;;;;;;;;;;5136845;27;19911;-70
2022/04/04 16:08:00;;;;;;;;;;;;;;;;;;5137368;27;19930;-69
2022/04/04 16:10:26;;;;;;;;;;;;;;;;;;5137339;27;19918;-69
2022/04/04 16:12:52;;;;;;;;;;;;;;;;;;5136969;27;20040;-69
2022/04/04 16:15:18;;;;;;;;;;;;;;;;;;5137691;27;20380;-69
2022/04/04 16:17:44;;;;;;;;;;;;;;;;;;5135579;27;19995;-69
2022/04/04 16:20:11;;;;;;;;;;;;;;;;;;5137279;27;20386;-69
2022/04/04 16:22:37;;;;;;;;;;;;;;;;;;5137166;27;19908;-69
2022/04/04 16:25:03;;;;;;;;;;;;;;;;;;5136563;27;20268;-69
2022/04/04 16:27:31;;;;;;;;;;;;;;;;;;5137312;27;19908;-69
2022/04/04 16:29:57;;;;;;;;;;;;;;;;;;5137153;27;19930;-70
2022/04/04 16:32:24;;;;;;;;;;;;;;;;;;5136831;27;20363;-70
2022/04/04 16:34:50;;;;;;;;;;;;;;;;;;5137000;27;19950;-69
2022/04/04 16:37:16;;;;;;;;;;;;;;;;;;5135820;27;20316;-69
2022/04/04 16:39:44;;;;;;;;;;;;;;;;;;5136323;27;19907;-70
2022/04/04 16:42:11;;;;;;;;;;;;;;;;;;5136641;27;20385;-70
2022/04/04 16:44:37;;;;;;;;;;;;;;;;;;5136575;27;19923;-69
2022/04/04 16:47:03;;;;;;;;;;;;;;;;;;5136444;27;20423;-69
2022/04/04 16:49:29;;;;;;;;;;;;;;;;;;5136775;27;19907;-69
2022/04/04 16:51:55;;;;;;;;;;;;;;;;;;5136771;27;19961;-70
2022/04/04 16:54:23;;;;;;;;;;;;;;;;;;5136404;27;20304;-69
2022/04/04 16:56:49;;;;;;;;;;;;;;;;;;5136496;27;20281;-69
2022/04/04 16:59:15;;;;;;;;;;;;;;;;;;5136455;27;19915;-69
2022/04/04 17:01:41;;;;;;;;;;;;;;;;;;5135971;27;19907;-70
2022/04/04 17:04:07;;;;;;;;;;;;;;;;;;5136176;27;19922;-70
2022/04/04 17:06:33;;;;;;;;;;;;;;;;;;5135296;27;19908;-70
2022/04/04 17:08:59;;;;;;;;;;;;;;;;;;5134515;27;19915;-70
2022/04/04 17:11:25;;;;;;;;;;;;;;;;;;5136287;27;19915;-69
2022/04/04 17:13:51;;;;;;;;;;;;;;;;;;5136241;27;20378;-69
2022/04/04 17:16:17;;;;;;;;;;;;;;;;;;5135654;27;19908;-69
2022/04/04 17:18:43;;;;;;;;;;;;;;;;;;5136139;27;19908;-69
2022/04/04 17:21:11;;;;;;;;;;;;;;;;;;5135166;27;19935;-71
2022/04/04 17:23:38;;;;;;;;;;;;;;;;;;5134591;27;19915;-69
2022/04/04 17:26:04;;;;;;;;;;;;;;;;;;5134594;27;19915;-69
2022/04/04 17:28:32;;;;;;;;;;;;;;;;;;5133862;27;19908;-69
2022/04/04 17:30:58;;;;;;;;;;;;;;;;;;5135806;27;19908;-69
2022/04/04 17:33:24;;;;;;;;;;;;;;;;;;5135812;27;19911;-68
2022/04/04 17:35:50;;;;;;;;;;;;;;;;;;5135442;27;19907;-69
2022/04/04 17:38:16;;;;;;;;;;;;;;;;;;5135840;27;19979;-68
2022/04/04 17:40:43;;;;;;;;;;;;;;;;;;5135693;27;20390;-69
2022/04/04 17:43:09;;;;;;;;;;;;;;;;;;5135210;27;20260;-68
2022/04/04 17:45:35;;;;;;;;;;;;;;;;;;5135570;27;20189;-69
2022/04/04 17:48:03;;;;;;;;;;;;;;;;;;5134809;27;19935;-69
2022/04/04 17:50:30;;;;;;;;;;;;;;;;;;5133274;27;19908;-68
2022/04/04 17:52:56;;;;;;;;;;;;;;;;;;5135612;27;19912;-69
2022/04/04 17:55:22;;;;;;;;;;;;;;;;;;5135578;27;19938;-69
2022/04/04 17:57:48;;;;;;;;;;;;;;;;;;5133865;27;19950;-69
2022/04/04 18:00:14;;;;;;;;;;;;;;;;;;5134193;27;19936;-69
2022/04/04 18:02:40;;;;;;;;;;;;;;;;;;5135418;27;20010;-69
2022/04/04 18:05:07;;;;;;;;;;;;;;;;;;5134900;27;20059;-69
2022/04/04 18:07:33;;;;;;;;;;;;;;;;;;5135352;27;20468;-69
2022/04/04 18:09:59;;;;;;;;;;;;;;;;;;5135370;27;19982;-68
2022/04/04 18:12:25;;;;;;;;;;;;;;;;;;5134865;27;19907;-68
2022/04/04 18:14:51;;;;;;;;;;;;;;;;;;5135221;27;20403;-69
2022/04/04 18:17:17;;;;;;;;;;;;;;;;;;5134641;27;19908;-69
2022/04/04 18:19:43;;;;;;;;;;;;;;;;;;5134879;27;19915;-69
2022/04/04 18:22:09;;;;;;;;;;;;;;;;;;5133661;27;19907;-69
2022/04/04 18:24:35;;;;;;;;;;;;;;;;;;5135000;27;19922;-68
2022/04/04 18:27:01;;;;;;;;;;;;;;;;;;5132079;27;19914;-68
2022/04/04 18:29:27;;;;;;;;;;;;;;;;;;5134736;27;19908;-68
2022/04/04 18:31:53;;;;;;;;;;;;;;;;;;5134500;27;20256;-69